Time;durP1;ratioP1;P1;durP2;ratioP2;P2;SDS_P1;SDS_P2;PMS_P1;PMS_P2;Temp;Humidity;BMP_temperature;BMP_pressure;BME280_temperature;BME280_humidity;BME280_pressure;Samples;Min_cycle;Max_cycle;Signal;HPM_P1;HPM_P2
2021/01/30 20:23:49;;;;;;;41.85;22.73;;;;;;;-1.13;86.29;100438.53;5093651;27;796395;-68
2021/01/30 20:26:15;;;;;;;42.85;22.70;;;;;;;-1.12;86.16;100445.47;5119414;27;20048;-67
2021/01/30 20:28:40;;;;;;;45.97;24.33;;;;;;;-1.10;86.26;100446.22;5112288;27;20055;-67
2021/01/30 20:31:06;;;;;;;43.53;23.73;;;;;;;-1.13;85.75;100446.38;5112105;28;20032;-68
2021/01/30 20:33:35;;;;;;;41.97;23.15;;;;;;;-1.26;86.15;100436.63;5114197;27;20038;-68
2021/01/30 20:36:01;;;;;;;42.13;23.23;;;;;;;-1.21;86.60;100443.38;5113700;27;20027;-68
2021/01/30 20:38:26;;;;;;;43.83;23.88;;;;;;;-1.23;86.22;100443.47;5114733;27;20062;-69
2021/01/30 20:40:52;;;;;;;46.85;25.88;;;;;;;-1.17;85.91;100447.50;5122962;27;20027;-69
2021/01/30 20:43:17;;;;;;;39.72;22.00;;;;;;;-1.21;85.59;100452.06;5123842;27;20118;-68
2021/01/30 20:45:43;;;;;;;46.53;24.63;;;;;;;-1.21;86.08;100449.44;5112339;27;20035;-68
2021/01/30 20:48:08;;;;;;;44.72;23.98;;;;;;;-1.28;86.24;100450.72;5120363;27;20076;-68
2021/01/30 20:50:34;;;;;;;45.13;24.73;;;;;;;-1.25;86.13;100453.19;5111194;28;20058;-68
2021/01/30 20:52:59;;;;;;;41.83;23.50;;;;;;;-1.28;86.07;100454.19;5098604;28;20435;-67
2021/01/30 20:55:26;;;;;;;43.40;23.88;;;;;;;-1.30;86.37;100455.22;5120587;27;20094;-69
2021/01/30 20:57:52;;;;;;;42.28;23.23;;;;;;;-1.27;85.85;100455.88;5125424;27;20508;-68
2021/01/30 21:00:18;;;;;;;45.00;24.33;;;;;;;-1.29;85.95;100460.34;5100143;28;20068;-68
2021/01/30 21:02:43;;;;;;;45.30;24.63;;;;;;;-1.35;86.26;100467.69;5124586;27;20114;-68
2021/01/30 21:05:09;;;;;;;46.67;24.52;;;;;;;-1.41;86.35;100469.75;5119273;27;20035;-68
2021/01/30 21:07:35;;;;;;;43.00;23.70;;;;;;;-1.41;86.21;100476.75;5125782;27;20053;-67
2021/01/30 21:10:00;;;;;;;44.40;23.90;;;;;;;-1.44;86.62;100475.16;5111730;27;20026;-68
2021/01/30 21:12:26;;;;;;;45.22;24.38;;;;;;;-1.43;86.35;100481.25;5121157;27;20024;-67
2021/01/30 21:14:53;;;;;;;42.22;22.90;;;;;;;-1.78;86.76;100422.06;5121175;27;20501;-67
2021/01/30 21:17:19;;;;;;;44.05;23.50;;;;;;;-1.40;86.10;100478.44;5120282;28;20027;-68
2021/01/30 21:19:44;;;;;;;42.28;22.67;;;;;;;-1.46;86.25;100482.22;5123551;27;20015;-67
2021/01/30 21:22:10;;;;;;;43.50;24.33;;;;;;;-1.49;86.84;100482.41;5115639;27;20052;-67
2021/01/30 21:24:35;;;;;;;44.53;24.00;;;;;;;-1.55;86.84;100491.44;5115421;27;20114;-68
2021/01/30 21:27:01;;;;;;;46.13;24.73;;;;;;;-1.64;87.38;100481.47;5116883;27;20492;-68
2021/01/30 21:29:26;;;;;;;44.80;24.13;;;;;;;-1.61;87.23;100481.31;5121386;27;20023;-68
2021/01/30 21:31:52;;;;;;;49.55;25.83;;;;;;;-1.88;87.37;100441.78;5122361;27;20030;-68
2021/01/30 21:34:17;;;;;;;46.20;24.63;;;;;;;-1.64;87.50;100486.72;5109210;27;20035;-68
2021/01/30 21:36:43;;;;;;;49.05;25.95;;;;;;;-1.64;87.15;100491.94;5105099;27;20035;-69
2021/01/30 21:39:08;;;;;;;47.55;24.42;;;;;;;-1.65;87.40;100484.19;5103566;27;20131;-68
2021/01/30 21:41:34;;;;;;;47.83;25.10;;;;;;;-1.82;87.69;100469.38;5106718;27;20477;-69
2021/01/30 21:43:59;;;;;;;48.38;25.15;;;;;;;-1.77;87.83;100477.84;5088764;27;20051;-68
2021/01/30 21:46:25;;;;;;;46.92;25.08;;;;;;;-1.85;87.77;100475.63;5101600;27;20039;-68
2021/01/30 21:48:51;;;;;;;53.05;27.00;;;;;;;-1.69;87.70;100496.56;5107216;27;20093;-68
2021/01/30 21:51:16;;;;;;;49.58;25.52;;;;;;;-1.68;88.16;100498.25;5105114;27;20473;-68
2021/01/30 21:53:42;;;;;;;48.63;25.30;;;;;;;-1.89;88.31;100477.56;5106180;27;20024;-68
2021/01/30 21:56:07;;;;;;;48.38;25.08;;;;;;;-1.73;87.86;100511.59;5085338;28;20106;-68
2021/01/30 21:58:33;;;;;;;48.50;25.58;;;;;;;-1.67;87.86;100510.41;5105776;28;20043;-67
2021/01/30 22:00:58;;;;;;;48.90;25.08;;;;;;;-1.93;88.42;100473.41;5108113;28;20020;-68
2021/01/30 22:03:24;;;;;;;46.78;25.17;;;;;;;-1.83;87.98;100496.50;5105776;27;20034;-68
2021/01/30 22:05:49;;;;;;;45.25;24.13;;;;;;;-1.81;88.36;100508.56;5094508;28;20085;-67
2021/01/30 22:08:15;;;;;;;48.85;24.60;;;;;;;-1.92;88.25;100482.13;5103530;28;20028;-68
2021/01/30 22:10:40;;;;;;;48.67;25.08;;;;;;;-1.95;88.22;100480.50;5092365;28;20027;-68
2021/01/30 22:13:06;;;;;;;43.17;22.65;;;;;;;-1.80;88.62;100507.63;5099766;28;20050;-68
2021/01/30 22:15:32;;;;;;;47.80;24.60;;;;;;;-1.86;88.44;100502.72;5108011;28;20056;-68
2021/01/30 22:17:57;;;;;;;47.58;24.73;;;;;;;-1.91;88.60;100508.19;5105392;28;20026;-68
2021/01/30 22:20:23;;;;;;;46.90;25.60;;;;;;;-1.93;89.13;100503.97;5097716;28;20046;-68
2021/01/30 22:23:07;;;;;;;45.30;23.55;;;;;;;-2.00;89.31;100511.28;5103360;28;20464;-68
2021/01/30 22:25:32;;;;;;;46.97;24.73;;;;;;;-2.00;89.12;100512.13;5096549;28;20044;-68
2021/01/30 22:27:58;;;;;;;46.22;23.65;;;;;;;-2.02;89.06;100507.91;5102951;28;20039;-68
2021/01/30 22:30:23;;;;;;;44.30;23.33;;;;;;;-2.04;89.02;100499.28;5101883;27;20031;-67
2021/01/30 22:32:49;;;;;;;45.90;24.10;;;;;;;-2.05;89.08;100495.84;5106147;27;20019;-66
2021/01/30 22:35:14;;;;;;;46.20;23.63;;;;;;;-2.08;89.18;100496.00;5106135;27;20027;-67
2021/01/30 22:37:40;;;;;;;47.38;24.45;;;;;;;-2.10;89.30;100492.63;5107805;27;20047;-67
2021/01/30 22:40:06;;;;;;;51.15;25.05;;;;;;;-2.66;89.14;100397.94;5109641;27;20023;-76
2021/01/30 22:42:31;;;;;;;46.88;24.60;;;;;;;-2.27;89.05;100463.88;5106296;27;20130;-77
2021/01/30 22:44:59;;;;;;;44.05;23.67;;;;;;;-2.17;89.63;100494.72;5106486;27;20038;-76
2021/01/30 22:47:28;;;;;;;48.60;25.13;;;;;;;-2.18;89.55;100506.09;5103199;27;20504;-67
2021/01/30 22:49:54;;;;;;;50.70;26.25;;;;;;;-2.31;90.09;100491.97;5101430;28;20024;-67
2021/01/30 22:52:19;;;;;;;51.47;26.55;;;;;;;-2.71;89.94;100413.81;5103789;27;20540;-67
2021/01/30 22:54:45;;;;;;;48.03;24.70;;;;;;;-2.23;90.19;100496.78;5110980;27;20032;-67
2021/01/30 22:57:10;;;;;;;51.42;25.83;;;;;;;-2.28;90.54;100507.50;5109187;27;20027;-67
2021/01/30 22:59:36;;;;;;;50.75;26.60;;;;;;;-2.26;90.10;100510.88;5107646;27;20421;-67
2021/01/30 23:02:01;;;;;;;49.88;25.20;;;;;;;-2.59;90.27;100458.56;5108150;27;20030;-67
2021/01/30 23:04:30;;;;;;;50.08;26.20;;;;;;;-2.32;90.34;100508.56;5105996;27;20042;-68
2021/01/30 23:06:56;;;;;;;49.50;24.88;;;;;;;-2.29;90.17;100513.66;5106726;27;20102;-67
2021/01/30 23:09:21;;;;;;;54.13;26.75;;;;;;;-2.33;90.33;100522.56;5107594;28;20397;-67
2021/01/30 23:11:47;;;;;;;49.00;24.90;;;;;;;-2.33;90.37;100520.81;5103651;27;20141;-76
2021/01/30 23:14:12;;;;;;;47.05;24.52;;;;;;;-2.36;90.64;100522.72;5110505;27;20512;-75
2021/01/30 23:16:38;;;;;;;49.97;25.73;;;;;;;-2.42;90.52;100518.63;5109059;27;20027;-76
2021/01/30 23:19:03;;;;;;;51.03;25.40;;;;;;;-2.39;90.52;100518.50;5107721;27;20035;-76
2021/01/30 23:21:29;;;;;;;50.28;24.77;;;;;;;-2.50;90.58;100523.41;5108411;27;20110;-76
2021/01/30 23:23:54;;;;;;;52.60;26.80;;;;;;;-2.43;90.57;100531.78;5115110;27;20051;-76
2021/01/30 23:26:20;;;;;;;52.85;26.13;;;;;;;-2.42;90.16;100533.47;5105764;27;20036;-76
2021/01/30 23:28:46;;;;;;;54.92;27.50;;;;;;;-2.47;90.41;100538.94;5105171;27;20085;-76
2021/01/30 23:31:11;;;;;;;51.10;25.90;;;;;;;-2.55;90.42;100530.63;5104713;27;20038;-76
2021/01/30 23:33:37;;;;;;;53.42;26.92;;;;;;;-2.58;91.34;100536.84;5087858;28;20019;-67
2021/01/30 23:36:03;;;;;;;53.50;26.90;;;;;;;-2.62;90.93;100536.19;5107863;27;20556;-66
2021/01/30 23:38:29;;;;;;;59.15;29.27;;;;;;;-2.66;91.92;100532.00;5105798;27;20418;-67
2021/01/30 23:40:55;;;;;;;58.10;28.50;;;;;;;-2.70;91.57;100530.47;5085595;28;20022;-67
2021/01/30 23:43:20;;;;;;;54.08;27.25;;;;;;;-2.68;91.37;100533.03;5102953;27;21700;-67
2021/01/30 23:45:46;;;;;;;57.97;28.05;;;;;;;-2.69;91.31;100534.78;5104084;27;20039;-67
2021/01/30 23:48:12;;;;;;;57.42;28.98;;;;;;;-2.73;91.32;100537.59;5103725;27;20038;-67
2021/01/30 23:50:39;;;;;;;60.67;28.80;;;;;;;-2.77;91.72;100537.75;5102770;27;20031;-76
2021/01/30 23:53:05;;;;;;;58.60;27.90;;;;;;;-2.77;91.71;100534.31;5101021;27;20046;-76
2021/01/30 23:55:30;;;;;;;61.17;28.50;;;;;;;-2.75;91.33;100534.22;5105682;28;20493;-76
2021/01/30 23:57:56;;;;;;;59.65;28.80;;;;;;;-2.85;91.30;100524.22;5104134;27;20098;-66
